Gaston, Indiana
Current Conditions -  °F | °C
As of 3:53 PM on Saturday 25 Oct 2014 (Local Time) from KMIE Reporting Station
Light Rain Light Rain  
Wind Chill: 75°   Ceiling: Unl
Heat Index: 75°   Visibility: 10mi
Dew Point: 48°   Wind: 18mph
Humidity: 38%   Direction: 290°WNW
Pressure: 29.89"   Gusts: 28mph
Location:  40.31°N, 85.5°W
Report Text: KMIE 251953Z 29016G24KT 10SM -RA CLR 24/09 A2989 RMK AO2 RAB09 SLP117 P0000 T02390089
Loading
Personal Weather Stations






























Interactive Weather Map
Tropical Storm Tracking
New forecast layout! Learn more

10-Day Weather Forecast

Advertisements
Track Severe Weather on mobile